createdAt,value
2023-02-22T00:01:38.083Z,8.91
2023-02-22T00:04:06.290Z,8.86
2023-02-22T00:06:33.060Z,8.86
2023-02-22T00:08:59.851Z,8.88
2023-02-22T00:11:26.259Z,8.95
2023-02-22T00:13:52.760Z,8.94
2023-02-22T00:16:21.976Z,8.92
2023-02-22T00:18:49.320Z,8.92
2023-02-22T00:21:17.122Z,8.94
2023-02-22T00:23:46.614Z,8.97
2023-02-22T00:26:18.155Z,8.94
2023-02-22T00:28:46.942Z,8.92
2023-02-22T00:31:15.048Z,8.86
2023-02-22T00:33:42.014Z,8.83
2023-02-22T00:36:10.698Z,8.80
2023-02-22T00:38:37.504Z,8.77
2023-02-22T00:41:04.064Z,8.73
2023-02-22T00:43:30.539Z,8.70
2023-02-22T00:45:57.762Z,8.69
2023-02-22T00:48:24.143Z,8.70
2023-02-22T00:50:53.718Z,8.69
2023-02-22T00:53:19.977Z,8.64
2023-02-22T00:55:46.324Z,8.66
2023-02-22T00:58:12.857Z,8.61
2023-02-22T01:00:42.553Z,8.66
2023-02-22T01:03:11.218Z,8.63
2023-02-22T01:05:38.245Z,8.61
2023-02-22T01:08:09.669Z,8.58
2023-02-22T01:10:37.768Z,8.57
2023-02-22T01:13:12.478Z,8.60
2023-02-22T01:15:41.742Z,8.64
2023-02-22T01:18:09.108Z,8.59
2023-02-22T01:20:36.145Z,8.58
2023-02-22T01:23:06.981Z,8.58
2023-02-22T01:25:34.562Z,8.59
2023-02-22T01:28:02.550Z,8.61
2023-02-22T01:30:32.875Z,8.60
2023-02-22T01:33:00.111Z,8.61
2023-02-22T01:35:29.757Z,8.57
2023-02-22T01:37:57.557Z,8.54
2023-02-22T01:40:33.805Z,8.58
2023-02-22T01:43:03.745Z,8.56
2023-02-22T01:45:30.081Z,8.63
2023-02-22T01:48:00.777Z,8.61
2023-02-22T01:50:29.247Z,8.63
2023-02-22T01:52:56.149Z,8.61
2023-02-22T01:55:23.281Z,8.62
2023-02-22T01:57:49.842Z,8.60
2023-02-22T02:00:21.017Z,8.64
2023-02-22T02:02:58.989Z,8.61
2023-02-22T02:05:27.841Z,8.57
2023-02-22T02:07:54.269Z,8.60
2023-02-22T02:10:21.535Z,8.55
2023-02-22T02:12:50.437Z,8.53
2023-02-22T02:15:18.257Z,8.53
2023-02-22T02:17:45.062Z,8.58
2023-02-22T02:20:35.156Z,8.56
2023-02-22T02:23:25.683Z,8.54
2023-02-22T02:26:21.431Z,8.60
2023-02-22T02:29:09.730Z,8.57
2023-02-22T02:32:10.067Z,8.59
2023-02-22T02:34:49.579Z,8.59
2023-02-22T02:37:49.554Z,8.60
2023-02-22T02:40:27.061Z,8.59
2023-02-22T02:43:01.402Z,8.55
2023-02-22T02:45:36.298Z,8.63
2023-02-22T02:48:07.166Z,8.61
2023-02-22T02:50:41.618Z,8.56
2023-02-22T02:53:09.865Z,8.56
2023-02-22T02:55:37.777Z,8.52
2023-02-22T02:58:08.786Z,8.53
2023-02-22T03:00:39.979Z,8.53
2023-02-22T03:03:43.440Z,8.50
2023-02-22T03:06:29.635Z,8.51
2023-02-22T03:09:24.062Z,8.47
2023-02-22T03:12:08.028Z,8.49
2023-02-22T03:15:04.169Z,8.46
2023-02-22T03:17:52.342Z,8.47
2023-02-22T03:20:46.353Z,8.42
2023-02-22T03:23:24.731Z,8.42
2023-02-22T03:26:02.399Z,8.43
2023-02-22T03:28:30.456Z,8.47
2023-02-22T03:31:10.268Z,8.44
2023-02-22T03:33:39.269Z,8.39
2023-02-22T03:36:20.807Z,8.38
2023-02-22T03:38:50.149Z,8.33
2023-02-22T03:41:20.269Z,8.30
2023-02-22T03:43:50.418Z,8.30
2023-02-22T03:46:19.204Z,8.30
2023-02-22T03:49:06.895Z,8.36
2023-02-22T03:51:33.478Z,8.30
2023-02-22T03:53:59.937Z,8.28
2023-02-22T03:56:35.725Z,8.27
2023-02-22T03:59:08.407Z,8.25
2023-02-22T04:01:35.278Z,8.18
2023-02-22T04:04:02.661Z,8.21
2023-02-22T04:06:29.539Z,8.20
2023-02-22T04:08:56.071Z,8.15
2023-02-22T04:11:22.779Z,8.15
2023-02-22T04:13:49.296Z,8.07
2023-02-22T04:16:15.786Z,8.18
2023-02-22T04:18:42.296Z,8.17
2023-02-22T04:21:09.235Z,8.08
2023-02-22T04:23:35.710Z,7.98
2023-02-22T04:26:02.059Z,7.98
2023-02-22T04:28:28.392Z,7.98
2023-02-22T04:30:54.792Z,7.95
2023-02-22T04:33:21.201Z,7.99
2023-02-22T04:35:47.542Z,7.95
2023-02-22T04:38:14.189Z,7.89
2023-02-22T04:40:40.647Z,7.95
2023-02-22T04:43:06.982Z,7.95
2023-02-22T04:45:33.368Z,7.89
2023-02-22T04:47:59.693Z,7.85
2023-02-22T04:50:26.072Z,7.84
2023-02-22T04:52:52.447Z,7.99
2023-02-22T04:55:18.877Z,8.02
2023-02-22T04:57:45.285Z,7.94
2023-02-22T05:00:17.278Z,7.93
2023-02-22T05:02:43.688Z,7.98
2023-02-22T05:05:10.120Z,7.96
2023-02-22T05:07:36.668Z,7.92
2023-02-22T05:10:03.130Z,7.92
2023-02-22T05:12:29.648Z,8.11
2023-02-22T05:14:56.158Z,7.96
2023-02-22T05:17:22.527Z,7.94
2023-02-22T05:19:48.876Z,7.89
2023-02-22T05:22:15.224Z,7.92
2023-02-22T05:24:41.585Z,8.02
2023-02-22T05:27:07.940Z,8.04
2023-02-22T05:29:34.316Z,8.10
2023-02-22T05:32:02.517Z,8.25
2023-02-22T05:34:29.102Z,8.08
2023-02-22T05:36:55.451Z,8.08
2023-02-22T05:39:22.236Z,8.01
2023-02-22T05:41:48.683Z,7.96
2023-02-22T05:44:15.299Z,8.05
2023-02-22T05:46:41.700Z,8.09
2023-02-22T05:49:08.133Z,8.07
2023-02-22T05:51:34.547Z,8.03
2023-02-22T05:54:00.909Z,8.03
2023-02-22T05:56:30.148Z,8.02
2023-02-22T05:58:57.267Z,8.03
2023-02-22T06:01:23.695Z,8.03
2023-02-22T06:03:51.147Z,7.97
2023-02-22T06:06:22.250Z,7.98
2023-02-22T06:08:49.187Z,7.94
2023-02-22T06:11:16.001Z,7.94
2023-02-22T06:13:42.672Z,8.02
2023-02-22T06:16:09.090Z,7.92
2023-02-22T06:18:35.551Z,7.90
2023-02-22T06:21:01.970Z,7.93
2023-02-22T06:23:28.314Z,7.97
2023-02-22T06:25:54.833Z,7.91
2023-02-22T06:28:21.247Z,7.89
2023-02-22T06:30:47.659Z,7.94
2023-02-22T06:33:14.046Z,7.89
2023-02-22T06:35:40.412Z,7.91
2023-02-22T06:38:06.826Z,8.07
2023-02-22T06:40:33.198Z,8.09
2023-02-22T06:42:59.989Z,8.11
2023-02-22T06:45:26.593Z,8.00
2023-02-22T06:47:52.976Z,8.10
2023-02-22T06:50:26.534Z,7.96
2023-02-22T06:52:52.939Z,7.97
2023-02-22T06:55:22.178Z,8.07
2023-02-22T06:57:48.561Z,8.22
2023-02-22T07:00:17.310Z,8.28
2023-02-22T07:02:43.696Z,8.28
2023-02-22T07:05:12.506Z,8.24
2023-02-22T07:07:39.980Z,8.47
2023-02-22T07:10:08.144Z,8.46
2023-02-22T07:12:35.429Z,8.64
2023-02-22T07:15:01.798Z,8.46
2023-02-22T07:17:28.116Z,8.41
2023-02-22T07:19:54.468Z,8.50
2023-02-22T07:22:20.822Z,8.39
2023-02-22T07:24:47.835Z,8.38
2023-02-22T07:27:14.188Z,8.46
2023-02-22T07:29:42.688Z,8.45
2023-02-22T07:32:10.288Z,8.46
2023-02-22T07:34:37.267Z,8.46
2023-02-22T07:37:03.667Z,8.58
2023-02-22T07:39:30.142Z,8.55
2023-02-22T07:41:56.561Z,8.63
2023-02-22T07:44:22.997Z,8.72
2023-02-22T07:46:52.644Z,8.73
2023-02-22T07:49:19.103Z,8.91
2023-02-22T07:51:45.821Z,8.84
2023-02-22T07:54:12.172Z,9.04
2023-02-22T07:56:44.907Z,9.10
2023-02-22T07:59:11.242Z,9.09
2023-02-22T08:01:37.680Z,9.04
2023-02-22T08:04:04.190Z,9.04
2023-02-22T08:06:31.778Z,9.13
2023-02-22T08:08:58.294Z,9.17
2023-02-22T08:11:25.679Z,9.20
2023-02-22T08:13:52.105Z,9.21
2023-02-22T08:16:18.478Z,9.08
2023-02-22T08:18:44.880Z,9.11
2023-02-22T08:21:11.565Z,9.17
2023-02-22T08:23:38.788Z,9.19
2023-02-22T08:26:10.869Z,9.25
2023-02-22T08:28:37.231Z,9.17
2023-02-22T08:31:03.687Z,9.22
2023-02-22T08:33:30.095Z,9.23
2023-02-22T08:35:56.530Z,9.26
2023-02-22T08:38:32.075Z,9.28
2023-02-22T08:40:58.506Z,9.41
2023-02-22T08:43:24.973Z,9.38
2023-02-22T08:45:52.418Z,9.35
2023-02-22T08:48:19.769Z,9.39
2023-02-22T08:50:46.717Z,9.35
2023-02-22T08:53:15.171Z,9.41
2023-02-22T08:55:42.168Z,9.44
2023-02-22T08:58:12.137Z,9.49
2023-02-22T09:00:40.200Z,9.55
2023-02-22T09:03:09.362Z,9.59
2023-02-22T09:05:35.856Z,9.71
2023-02-22T09:08:02.654Z,9.70
2023-02-22T09:10:33.337Z,9.75
2023-02-22T09:13:00.838Z,9.83
2023-02-22T09:15:28.428Z,9.84
2023-02-22T09:17:54.785Z,9.74
2023-02-22T09:20:23.531Z,9.89
2023-02-22T09:22:50.436Z,9.95
2023-02-22T09:25:18.220Z,10.02
2023-02-22T09:27:46.545Z,10.10
2023-02-22T09:30:20.344Z,10.14
2023-02-22T09:32:46.864Z,10.17
2023-02-22T09:35:13.335Z,10.16
2023-02-22T09:37:39.767Z,10.33
2023-02-22T09:40:09.895Z,10.39
2023-02-22T09:42:48.021Z,10.41
2023-02-22T09:45:22.707Z,10.41
2023-02-22T09:48:15.206Z,10.51
2023-02-22T09:50:48.546Z,10.56
2023-02-22T09:53:31.759Z,10.48
2023-02-22T09:56:04.480Z,10.51
2023-02-22T09:58:33.270Z,10.54
2023-02-22T10:01:36.452Z,10.48
2023-02-22T10:04:45.305Z,10.62
2023-02-22T10:07:28.109Z,10.61
2023-02-22T10:09:56.552Z,10.67
2023-02-22T10:12:29.434Z,10.58
2023-02-22T10:15:19.062Z,10.59
2023-02-22T10:18:03.588Z,10.67
2023-02-22T10:20:45.729Z,10.73
2023-02-22T10:23:41.168Z,10.78
2023-02-22T10:26:19.563Z,10.77
2023-02-22T10:28:59.309Z,10.73
2023-02-22T10:31:30.907Z,10.75
2023-02-22T10:34:02.263Z,10.80
2023-02-22T10:36:29.289Z,10.86
2023-02-22T10:39:02.173Z,10.89
2023-02-22T10:41:31.687Z,10.92
2023-02-22T10:43:58.268Z,10.95
2023-02-22T10:46:28.452Z,10.89
2023-02-22T10:49:02.538Z,10.85
2023-02-22T10:51:29.097Z,10.83
2023-02-22T10:54:13.876Z,10.85
2023-02-22T10:56:48.829Z,10.92
2023-02-22T10:59:34.118Z,10.96
2023-02-22T11:02:08.633Z,10.99
2023-02-22T11:04:54.058Z,10.98
2023-02-22T11:07:32.446Z,11.01
2023-02-22T11:10:01.225Z,11.07
2023-02-22T11:12:29.241Z,11.12
2023-02-22T11:14:56.474Z,11.14
2023-02-22T11:17:31.980Z,11.17
2023-02-22T11:19:59.363Z,11.25
2023-02-22T11:22:40.992Z,11.21
2023-02-22T11:25:08.294Z,11.21
2023-02-22T11:27:43.718Z,11.36
2023-02-22T11:30:22.406Z,11.25
2023-02-22T11:32:53.185Z,11.35
2023-02-22T11:35:32.061Z,11.39
2023-02-22T11:38:24.448Z,11.35
2023-02-22T11:41:22.987Z,11.23
2023-02-22T11:43:51.526Z,11.34
2023-02-22T11:46:30.167Z,11.38
2023-02-22T11:49:04.524Z,11.55
2023-02-22T11:51:45.175Z,11.54
2023-02-22T11:54:28.818Z,11.60
2023-02-22T11:57:23.243Z,11.73
2023-02-22T12:00:24.172Z,11.68
2023-02-22T12:03:19.520Z,11.61
2023-02-22T12:05:59.390Z,11.67
2023-02-22T12:08:41.037Z,11.74
2023-02-22T12:11:23.777Z,11.76
2023-02-22T12:14:16.382Z,11.66
2023-02-22T12:17:01.691Z,11.74
2023-02-22T12:19:36.681Z,11.68
2023-02-22T12:22:12.059Z,11.67
2023-02-22T12:24:45.230Z,11.64
2023-02-22T12:27:18.434Z,11.69
2023-02-22T12:30:18.354Z,11.69
2023-02-22T12:32:53.896Z,11.66
2023-02-22T12:35:29.950Z,11.77
2023-02-22T12:38:04.732Z,11.82
2023-02-22T12:40:35.546Z,11.78
2023-02-22T12:43:20.574Z,11.80
2023-02-22T12:45:52.748Z,11.84
2023-02-22T12:48:43.306Z,11.87
2023-02-22T12:51:34.451Z,11.86
2023-02-22T12:54:11.912Z,11.88
2023-02-22T12:56:45.012Z,11.82
2023-02-22T12:59:20.912Z,11.94
2023-02-22T13:01:55.037Z,12.04
2023-02-22T13:04:22.133Z,11.95
2023-02-22T13:07:10.036Z,11.90
2023-02-22T13:09:54.085Z,11.96
2023-02-22T13:12:38.434Z,12.05
2023-02-22T13:15:17.137Z,12.03
2023-02-22T13:18:02.846Z,12.00
2023-02-22T13:20:36.951Z,12.07
2023-02-22T13:23:32.464Z,12.15
2023-02-22T13:26:11.906Z,12.05
2023-02-22T13:28:50.762Z,11.99
2023-02-22T13:31:33.325Z,11.95
2023-02-22T13:34:06.679Z,12.05
2023-02-22T13:36:42.112Z,12.12
2023-02-22T13:39:28.420Z,12.10
2023-02-22T13:42:04.102Z,12.05
2023-02-22T13:45:03.157Z,12.04
2023-02-22T13:47:52.606Z,12.05
2023-02-22T13:50:40.997Z,12.03
2023-02-22T13:53:14.507Z,11.91
2023-02-22T13:55:44.168Z,11.89
2023-02-22T13:58:12.510Z,11.83
2023-02-22T14:00:49.243Z,11.75
2023-02-22T14:03:15.523Z,11.75
2023-02-22T14:05:42.309Z,11.80
2023-02-22T14:08:31.575Z,11.78
2023-02-22T14:11:00.598Z,11.71
2023-02-22T14:13:33.225Z,11.79
2023-02-22T14:16:02.445Z,11.74
2023-02-22T14:18:39.213Z,11.71
2023-02-22T14:21:15.814Z,11.69
2023-02-22T14:23:43.293Z,11.66
2023-02-22T14:26:15.107Z,11.64
2023-02-22T14:28:52.488Z,11.62
2023-02-22T14:31:34.924Z,11.58
2023-02-22T14:34:06.390Z,11.55
2023-02-22T14:36:54.461Z,11.58
2023-02-22T14:39:32.313Z,11.60
2023-02-22T14:42:05.914Z,11.59
2023-02-22T14:45:14.426Z,11.53
2023-02-22T14:47:54.402Z,11.54
2023-02-22T14:50:27.030Z,11.57
2023-02-22T14:53:03.895Z,11.60
2023-02-22T14:55:33.136Z,11.55
2023-02-22T14:58:10.570Z,11.56
2023-02-22T15:00:45.885Z,11.55
2023-02-22T15:03:37.246Z,11.52
2023-02-22T15:06:14.881Z,11.55
2023-02-22T15:08:42.566Z,11.61
2023-02-22T15:11:21.490Z,11.59
2023-02-22T15:13:54.814Z,11.63
2023-02-22T15:16:23.276Z,11.66
2023-02-22T15:18:54.712Z,11.65
2023-02-22T15:21:24.615Z,11.68
2023-02-22T15:23:54.541Z,11.73
2023-02-22T15:26:37.321Z,11.73
2023-02-22T15:29:19.590Z,11.74
2023-02-22T15:31:48.283Z,11.71
2023-02-22T15:34:14.890Z,11.50
2023-02-22T15:36:43.924Z,11.37
2023-02-22T15:39:29.596Z,11.26
2023-02-22T15:42:19.155Z,11.16
2023-02-22T15:44:48.085Z,11.29
2023-02-22T15:47:27.246Z,11.32
2023-02-22T15:50:33.846Z,11.25
2023-02-22T15:53:04.807Z,11.15
2023-02-22T15:55:37.541Z,11.05
2023-02-22T15:58:15.809Z,10.95
2023-02-22T16:00:45.304Z,10.86
2023-02-22T16:03:15.009Z,10.78
2023-02-22T16:05:47.705Z,10.75
2023-02-22T16:08:18.575Z,10.70
2023-02-22T16:10:58.402Z,10.68
2023-02-22T16:13:32.366Z,10.72
2023-02-22T16:16:03.038Z,10.61
2023-02-22T16:18:31.764Z,10.59
2023-02-22T16:21:01.358Z,10.55
2023-02-22T16:23:29.084Z,10.45
2023-02-22T16:26:05.254Z,10.41
2023-02-22T16:28:33.941Z,10.36
2023-02-22T16:31:00.392Z,10.42
2023-02-22T16:33:30.930Z,10.31
2023-02-22T16:35:57.362Z,10.35
2023-02-22T16:38:27.350Z,10.22
2023-02-22T16:40:55.755Z,10.18
2023-02-22T16:43:27.492Z,10.16
2023-02-22T16:45:53.914Z,10.14
2023-02-22T16:48:23.525Z,10.10
2023-02-22T16:50:51.700Z,10.05
2023-02-22T16:53:21.107Z,10.07
2023-02-22T16:55:48.062Z,9.99
2023-02-22T16:58:17.179Z,9.95
2023-02-22T17:00:43.676Z,9.92
2023-02-22T17:03:15.271Z,9.86
2023-02-22T17:05:41.750Z,9.85
2023-02-22T17:08:08.160Z,9.81
2023-02-22T17:10:34.658Z,9.77
2023-02-22T17:13:12.832Z,9.72
2023-02-22T17:15:46.641Z,9.68
2023-02-22T17:18:16.149Z,9.63
2023-02-22T17:20:45.766Z,9.59
2023-02-22T17:23:12.376Z,9.57
2023-02-22T17:25:50.176Z,9.55
2023-02-22T17:28:17.021Z,9.50
2023-02-22T17:30:45.166Z,9.47
2023-02-22T17:33:16.360Z,9.43
2023-02-22T17:35:42.865Z,9.41
2023-02-22T17:38:10.188Z,9.37
2023-02-22T17:40:38.689Z,9.38
2023-02-22T17:43:08.707Z,9.34
2023-02-22T17:45:38.310Z,9.31
2023-02-22T17:48:05.486Z,9.28
2023-02-22T17:50:31.844Z,9.26
2023-02-22T17:53:00.512Z,9.21
2023-02-22T17:55:27.425Z,9.25
2023-02-22T17:57:58.266Z,9.17
2023-02-22T18:00:33.014Z,9.15
2023-02-22T18:03:21.726Z,9.19
2023-02-22T18:05:50.832Z,9.21
2023-02-22T18:08:17.383Z,9.22
2023-02-22T18:10:44.678Z,9.17
2023-02-22T18:13:14.170Z,9.15
2023-02-22T18:15:40.468Z,9.09
2023-02-22T18:18:07.187Z,9.07
2023-02-22T18:20:39.259Z,9.03
2023-02-22T18:23:07.935Z,8.97
2023-02-22T18:25:35.953Z,8.94
2023-02-22T18:28:04.606Z,8.92
2023-02-22T18:30:31.008Z,8.94
2023-02-22T18:32:57.666Z,8.90
2023-02-22T18:35:24.087Z,8.85
2023-02-22T18:37:50.424Z,8.81
2023-02-22T18:40:18.913Z,8.79
2023-02-22T18:42:46.570Z,8.77
2023-02-22T18:45:13.209Z,8.78
2023-02-22T18:47:44.096Z,8.71
2023-02-22T18:50:11.731Z,8.76
2023-02-22T18:52:44.792Z,8.66
2023-02-22T18:55:22.177Z,8.64
2023-02-22T18:57:52.480Z,8.61
2023-02-22T19:00:24.168Z,8.66
2023-02-22T19:02:50.624Z,8.74
2023-02-22T19:05:17.329Z,8.74
2023-02-22T19:07:44.990Z,8.64
2023-02-22T19:10:11.369Z,8.59
2023-02-22T19:12:37.713Z,8.48
2023-02-22T19:15:04.511Z,8.52
2023-02-22T19:17:32.203Z,8.45
2023-02-22T19:19:58.591Z,8.46
2023-02-22T19:22:26.217Z,8.38
2023-02-22T19:24:56.351Z,8.34
2023-02-22T19:27:22.851Z,8.30
2023-02-22T19:29:49.836Z,8.23
2023-02-22T19:32:17.361Z,8.21
2023-02-22T19:34:44.118Z,8.21
2023-02-22T19:37:12.495Z,8.22
2023-02-22T19:39:38.977Z,8.18
2023-02-22T19:42:09.021Z,8.09
2023-02-22T19:44:35.514Z,8.05
2023-02-22T19:47:02.122Z,8.04
2023-02-22T19:49:29.182Z,8.04
2023-02-22T19:51:58.025Z,7.96
2023-02-22T19:54:24.402Z,7.96
2023-02-22T19:56:51.124Z,7.95
2023-02-22T19:59:22.583Z,7.97
2023-02-22T20:01:52.691Z,7.92
2023-02-22T20:04:21.308Z,7.96
2023-02-22T20:06:50.541Z,7.86
2023-02-22T20:09:20.065Z,7.84
2023-02-22T20:11:48.005Z,7.82
2023-02-22T20:14:20.204Z,7.71
2023-02-22T20:16:46.891Z,7.76
2023-02-22T20:19:13.644Z,7.71
2023-02-22T20:21:40.217Z,7.69
2023-02-22T20:24:09.115Z,7.70
2023-02-22T20:26:36.789Z,7.70
2023-02-22T20:29:04.385Z,7.67
2023-02-22T20:31:31.354Z,7.65
2023-02-22T20:33:59.963Z,7.61
2023-02-22T20:36:28.482Z,7.64
2023-02-22T20:38:59.740Z,7.66
2023-02-22T20:41:28.606Z,7.60
2023-02-22T20:43:56.166Z,7.53
2023-02-22T20:46:23.832Z,7.62
2023-02-22T20:48:55.357Z,7.53
2023-02-22T20:51:22.245Z,7.50
2023-02-22T20:53:48.890Z,7.51
2023-02-22T20:56:19.908Z,7.54
2023-02-22T20:58:46.674Z,7.45
2023-02-22T21:01:16.943Z,7.48
2023-02-22T21:03:43.645Z,7.43
2023-02-22T21:06:14.782Z,7.38
2023-02-22T21:08:45.806Z,7.39
2023-02-22T21:11:13.838Z,7.34
2023-02-22T21:13:40.943Z,7.36
2023-02-22T21:16:10.152Z,7.39
2023-02-22T21:18:37.247Z,7.39
2023-02-22T21:21:10.305Z,7.32
2023-02-22T21:23:37.521Z,7.36
2023-02-22T21:26:04.172Z,7.39
2023-02-22T21:28:49.969Z,7.35
2023-02-22T21:31:18.950Z,7.29
2023-02-22T21:33:58.447Z,7.33
2023-02-22T21:36:25.819Z,7.22
2023-02-22T21:39:00.644Z,7.21
2023-02-22T21:41:29.396Z,7.19
2023-02-22T21:43:58.409Z,7.15
2023-02-22T21:46:26.993Z,7.18
2023-02-22T21:48:53.493Z,7.18
2023-02-22T21:51:31.298Z,7.15
2023-02-22T21:54:00.961Z,7.22
2023-02-22T21:56:27.893Z,7.15
2023-02-22T21:59:00.242Z,7.10
2023-02-22T22:01:28.384Z,7.12
2023-02-22T22:03:56.402Z,7.14
2023-02-22T22:06:22.785Z,7.14
2023-02-22T22:08:49.129Z,7.11
2023-02-22T22:11:17.827Z,7.15
2023-02-22T22:13:44.445Z,7.11
2023-02-22T22:16:14.702Z,7.04
2023-02-22T22:18:42.948Z,7.01
2023-02-22T22:21:16.365Z,7.04
2023-02-22T22:23:46.861Z,7.05
2023-02-22T22:26:19.882Z,7.06
2023-02-22T22:28:48.456Z,7.04
2023-02-22T22:31:17.871Z,7.05
2023-02-22T22:33:44.782Z,6.99
2023-02-22T22:36:13.609Z,6.98
2023-02-22T22:38:40.265Z,6.94
2023-02-22T22:41:09.061Z,6.95
2023-02-22T22:43:37.048Z,6.97
2023-02-22T22:46:05.603Z,6.93
2023-02-22T22:48:36.020Z,6.98
2023-02-22T22:51:06.573Z,7.00
2023-02-22T22:53:34.436Z,7.03
2023-02-22T22:56:08.512Z,7.02
2023-02-22T22:58:35.521Z,6.98
2023-02-22T23:01:06.289Z,6.96
2023-02-22T23:03:36.805Z,6.92
2023-02-22T23:06:04.659Z,6.88
2023-02-22T23:08:42.894Z,6.83
2023-02-22T23:11:11.071Z,6.81
2023-02-22T23:13:38.634Z,6.78
2023-02-22T23:16:12.020Z,6.75
2023-02-22T23:18:43.254Z,6.75
2023-02-22T23:21:10.645Z,6.73
2023-02-22T23:23:37.721Z,6.72
2023-02-22T23:26:18.450Z,6.71
2023-02-22T23:28:47.256Z,6.73
2023-02-22T23:31:16.818Z,6.74
2023-02-22T23:33:48.113Z,6.70
2023-02-22T23:36:15.916Z,6.66
2023-02-22T23:38:42.997Z,6.70
2023-02-22T23:41:13.635Z,6.66
2023-02-22T23:43:40.537Z,6.67
2023-02-22T23:46:13.554Z,6.61
2023-02-22T23:48:46.628Z,6.62
2023-02-22T23:51:15.251Z,6.60
2023-02-22T23:53:49.373Z,6.65
2023-02-22T23:56:21.852Z,6.60
2023-02-22T23:58:52.275Z,6.62
